EDDG/FMO METAR and TAF weather

Enter ICAO airport designator
Station Type Date Time Source
EDDG METAR 2018/04/21 11:20 UTC NOAA

EDDG 211120Z VRB06KT CAVOK 20/08 Q1022 NOSIG


Station Type Date Time Source
EDDG Decoded METAR 2018/04/21 11:20 UTC NOAA

Muenster / Osnabrueck, Germany (EDDG) 52-08N 007-42E 53M
Apr 21, 2018 - 07:20 AM EDT / 2018.04.21 1120 UTC
Wind: Variable at 7 MPH (6 KT):0
Visibility: greater than 7 mile(s):0
Temperature: 68 F (20 C)
Dew Point: 46 F (8 C)
Relative Humidity: 45%
Pressure (altimeter): 30.18 in. Hg (1022 hPa)
ob: EDDG 211120Z VRB06KT CAVOK 20/08 Q1022 NOSIG
cycle: 11

Station Type Date Time Source
EDDG TAF 2018/04/21 12:27 UTC NOAA

TAF EDDG 211100Z 2112/2212 01007KT CAVOK
BECMG 2119/2122 09005KT
BECMG 2207/2211 18008KT


Example: see airport list